createdAt,value
2023-01-01T00:00:54.572Z,100713.41
2023-01-01T00:03:23.524Z,100703.69
2023-01-01T00:05:52.289Z,100710.94
2023-01-01T00:08:21.074Z,100713.78
2023-01-01T00:10:47.877Z,100726.56
2023-01-01T00:13:16.724Z,100716.69
2023-01-01T00:15:45.672Z,100721.69
2023-01-01T00:18:16.367Z,100723.88
2023-01-01T00:20:45.225Z,100714.63
2023-01-01T00:23:14.268Z,100711.47
2023-01-01T00:25:43.965Z,100709.44
2023-01-01T00:28:12.760Z,100709.25
2023-01-01T00:30:42.973Z,100718.34
2023-01-01T00:33:11.799Z,100716.31
2023-01-01T00:35:42.601Z,100715.66
2023-01-01T00:38:11.433Z,100721.50
2023-01-01T00:40:40.183Z,100721.56
2023-01-01T00:43:09.028Z,100712.47
2023-01-01T00:45:37.913Z,100718.72
2023-01-01T00:48:07.444Z,100712.47
2023-01-01T00:50:36.231Z,100715.16
2023-01-01T00:53:06.958Z,100711.66
2023-01-01T00:55:35.731Z,100707.94
2023-01-01T00:58:04.412Z,100718.50
2023-01-01T01:00:33.243Z,100714.16
2023-01-01T01:03:02.591Z,100718.72
2023-01-01T01:05:31.477Z,100710.81
2023-01-01T01:08:00.381Z,100714.50
2023-01-01T01:10:31.276Z,100714.50
2023-01-01T01:12:59.906Z,100721.19
2023-01-01T01:15:28.635Z,100726.94
2023-01-01T01:17:57.294Z,100749.78
2023-01-01T01:20:25.954Z,100731.13
2023-01-01T01:22:54.707Z,100735.66
2023-01-01T01:25:23.378Z,100748.94
2023-01-01T01:27:54.003Z,100755.16
2023-01-01T01:30:22.686Z,100760.25
2023-01-01T01:32:51.322Z,100761.91
2023-01-01T01:35:20.324Z,100772.03
2023-01-01T01:37:48.930Z,100767.03
2023-01-01T01:40:18.673Z,100774.06
2023-01-01T01:42:49.419Z,100761.16
2023-01-01T01:45:20.768Z,100762.84
2023-01-01T01:47:53.471Z,100768.41
2023-01-01T01:50:28.108Z,100767.38
2023-01-01T01:53:06.279Z,100768.50
2023-01-01T01:55:38.914Z,100769.78
2023-01-01T01:58:09.124Z,100781.84
2023-01-01T02:00:39.853Z,100778.34
2023-01-01T02:03:13.941Z,100787.31
2023-01-01T02:05:43.233Z,100792.03
2023-01-01T02:08:15.236Z,100801.84
2023-01-01T02:10:44.544Z,100798.81
2023-01-01T02:13:13.684Z,100799.16
2023-01-01T02:15:55.932Z,100790.06
2023-01-01T02:18:31.173Z,100800.13
2023-01-01T02:21:06.310Z,100800.78
2023-01-01T02:24:02.208Z,100797.50
2023-01-01T02:26:53.953Z,100805.19
2023-01-01T02:29:44.866Z,100802.16
2023-01-01T02:32:17.446Z,100801.13
2023-01-01T02:34:52.627Z,100807.31
2023-01-01T02:37:24.040Z,100805.94
2023-01-01T02:39:56.716Z,100799.09
2023-01-01T02:42:29.466Z,100816.59
2023-01-01T02:45:01.623Z,100822.34
2023-01-01T02:47:30.258Z,100817.97
2023-01-01T02:50:09.827Z,100820.50
2023-01-01T02:53:03.212Z,100819.00
2023-01-01T02:55:46.092Z,100817.06
2023-01-01T02:58:38.056Z,100819.44
2023-01-01T03:01:21.112Z,100823.97
2023-01-01T03:04:02.467Z,100829.53
2023-01-01T03:06:40.601Z,100829.72
2023-01-01T03:09:22.412Z,100832.03
2023-01-01T03:12:00.552Z,100837.94
2023-01-01T03:14:42.137Z,100838.25
2023-01-01T03:17:23.369Z,100845.97
2023-01-01T03:19:55.743Z,100839.63
2023-01-01T03:22:31.706Z,100848.03
2023-01-01T03:25:05.961Z,100840.31
2023-01-01T03:27:40.964Z,100855.59
2023-01-01T03:30:13.286Z,100866.59
2023-01-01T03:33:05.369Z,100866.16
2023-01-01T03:35:38.857Z,100891.38
2023-01-01T03:38:12.357Z,100878.91
2023-01-01T03:40:42.126Z,100886.78
2023-01-01T03:43:16.024Z,100887.66
2023-01-01T03:45:49.331Z,100885.69
2023-01-01T03:48:20.577Z,100894.66
2023-01-01T03:51:00.368Z,100901.56
2023-01-01T03:53:40.244Z,100908.63
2023-01-01T03:56:17.899Z,100892.00
2023-01-01T03:58:54.334Z,100936.50
2023-01-01T04:01:29.052Z,100932.97
2023-01-01T04:04:02.091Z,100936.19
2023-01-01T04:06:30.830Z,100915.03
2023-01-01T04:09:01.550Z,100922.81
2023-01-01T04:11:46.053Z,100921.34
2023-01-01T04:14:14.732Z,100910.81
2023-01-01T04:16:43.597Z,100916.88
2023-01-01T04:19:14.145Z,100928.31
2023-01-01T04:21:42.746Z,100928.19
2023-01-01T04:24:11.709Z,100927.00
2023-01-01T04:26:40.410Z,100938.59
2023-01-01T04:29:09.279Z,100935.91
2023-01-01T04:31:38.948Z,100950.34
2023-01-01T04:34:07.625Z,100946.16
2023-01-01T04:36:38.858Z,100957.56
2023-01-01T04:39:07.958Z,100973.03
2023-01-01T04:41:36.832Z,100982.75
2023-01-01T04:44:06.165Z,100982.75
2023-01-01T04:46:34.772Z,100985.94
2023-01-01T04:49:03.441Z,101001.53
2023-01-01T04:51:32.025Z,101000.50
2023-01-01T04:54:02.978Z,100999.50
2023-01-01T04:56:31.632Z,100997.50
2023-01-01T04:59:00.292Z,101004.19
2023-01-01T05:01:31.228Z,101003.03
2023-01-01T05:04:01.278Z,101003.69
2023-01-01T05:06:30.296Z,101004.69
2023-01-01T05:09:00.528Z,101012.91
2023-01-01T05:11:31.704Z,101014.94
2023-01-01T05:14:02.208Z,101018.13
2023-01-01T05:16:34.131Z,101019.63
2023-01-01T05:19:02.567Z,101014.56
2023-01-01T05:21:34.269Z,101019.47
2023-01-01T05:24:05.083Z,101015.59
2023-01-01T05:26:39.309Z,101007.38
2023-01-01T05:29:15.633Z,101030.69
2023-01-01T05:31:46.885Z,101040.91
2023-01-01T05:34:15.930Z,101037.75
2023-01-01T05:36:44.607Z,101048.97
2023-01-01T05:39:14.528Z,101052.47
2023-01-01T05:41:45.106Z,101047.97
2023-01-01T05:44:15.932Z,101060.34
2023-01-01T05:46:44.689Z,101049.44
2023-01-01T05:49:14.062Z,101045.44
2023-01-01T05:51:42.689Z,101072.94
2023-01-01T05:56:40.400Z,101061.84
2023-01-01T05:59:11.935Z,101070.25
2023-01-01T06:01:45.489Z,101087.34
2023-01-01T06:04:15.517Z,101074.56
2023-01-01T06:06:44.172Z,101086.81
2023-01-01T06:09:13.125Z,101094.72
2023-01-01T06:11:41.777Z,101092.53
2023-01-01T06:14:12.350Z,101101.03
2023-01-01T06:16:41.918Z,101095.66
2023-01-01T06:19:10.800Z,101108.75
2023-01-01T06:21:39.409Z,101114.81
2023-01-01T06:24:08.840Z,101115.13
2023-01-01T06:26:37.474Z,101116.81
2023-01-01T06:29:06.287Z,101122.84
2023-01-01T06:31:40.611Z,101126.50
2023-01-01T06:34:10.673Z,101130.66
2023-01-01T06:36:39.491Z,101144.91
2023-01-01T06:39:08.721Z,101148.91
2023-01-01T06:41:37.948Z,101142.72
2023-01-01T06:44:07.009Z,101147.56
2023-01-01T06:46:38.219Z,101138.84
2023-01-01T06:49:09.453Z,101148.03
2023-01-01T06:51:41.413Z,101145.22
2023-01-01T06:54:11.393Z,101160.06
2023-01-01T06:56:40.530Z,101158.75
2023-01-01T06:59:09.200Z,101139.44
2023-01-01T07:01:44.133Z,101159.88
2023-01-01T07:04:15.555Z,101177.13
2023-01-01T07:06:44.297Z,101187.66
2023-01-01T07:09:12.931Z,101187.84
2023-01-01T07:11:41.552Z,101201.72
2023-01-01T07:14:10.231Z,101204.03
2023-01-01T07:16:40.890Z,101207.19
2023-01-01T07:19:09.614Z,101219.72
2023-01-01T07:21:44.840Z,101210.03
2023-01-01T07:24:16.308Z,101215.53
2023-01-01T07:26:46.077Z,101214.03
2023-01-01T07:29:15.115Z,101234.47
2023-01-01T07:31:46.541Z,101252.44
2023-01-01T07:34:18.624Z,101250.06
2023-01-01T07:36:47.582Z,101273.22
2023-01-01T07:39:16.178Z,101279.84
2023-01-01T07:41:45.217Z,101265.38
2023-01-01T07:44:13.831Z,101273.09
2023-01-01T07:46:42.533Z,101284.41
2023-01-01T07:49:13.118Z,101288.72
2023-01-01T07:51:41.803Z,101296.38
2023-01-01T07:54:10.443Z,101307.25
2023-01-01T07:56:39.139Z,101302.66
2023-01-01T07:59:07.765Z,101313.81
2023-01-01T08:01:38.567Z,101314.81
2023-01-01T08:04:07.608Z,101327.19
2023-01-01T08:06:39.529Z,101328.94
2023-01-01T08:09:07.917Z,101333.19
2023-01-01T08:11:36.525Z,101337.41
2023-01-01T08:14:05.211Z,101346.75
2023-01-01T08:16:33.896Z,101354.06
2023-01-01T08:19:02.550Z,101357.22
2023-01-01T08:21:31.729Z,101357.88
2023-01-01T08:24:02.300Z,101366.22
2023-01-01T08:26:34.121Z,101361.69
2023-01-01T08:29:06.920Z,101363.84
2023-01-01T08:31:35.866Z,101357.50
2023-01-01T08:34:04.583Z,101352.44
2023-01-01T08:36:33.212Z,101351.16
2023-01-01T08:39:03.828Z,101349.31
2023-01-01T08:41:32.508Z,101353.28
2023-01-01T08:44:01.362Z,101364.53
2023-01-01T08:46:30.107Z,101350.47
2023-01-01T08:48:58.743Z,101367.06
2023-01-01T08:51:27.456Z,101358.91
2023-01-01T08:53:56.122Z,101372.66
2023-01-01T08:56:26.772Z,101373.25
2023-01-01T08:59:01.782Z,101380.69
2023-01-01T09:01:33.145Z,101382.06
2023-01-01T09:04:01.914Z,101378.25
2023-01-01T09:06:30.612Z,101381.78
2023-01-01T09:08:59.451Z,101387.81
2023-01-01T09:11:30.347Z,101395.69
2023-01-01T09:13:58.955Z,101400.75
2023-01-01T09:16:28.057Z,101399.00
2023-01-01T09:18:56.809Z,101403.75
2023-01-01T09:21:25.487Z,101399.94
2023-01-01T09:23:54.178Z,101398.78
2023-01-01T09:26:22.798Z,101388.19
2023-01-01T09:28:53.382Z,101393.28
2023-01-01T09:31:22.083Z,101391.19
2023-01-01T09:33:50.727Z,101396.03
2023-01-01T09:36:31.271Z,101392.72
2023-01-01T09:39:01.993Z,101389.69
2023-01-01T09:41:56.065Z,101390.59
2023-01-01T09:44:49.522Z,101393.66
2023-01-01T09:47:28.060Z,101389.28
2023-01-01T09:50:03.270Z,101397.03
2023-01-01T09:52:45.297Z,101406.75
2023-01-01T09:55:20.149Z,101415.72
2023-01-01T09:57:48.867Z,101413.13
2023-01-01T10:00:21.622Z,101418.19
2023-01-01T10:03:12.754Z,101424.88
2023-01-01T10:05:54.632Z,101428.34
2023-01-01T10:08:38.811Z,101417.75
2023-01-01T10:11:18.751Z,101433.38
2023-01-01T10:13:48.055Z,101443.34
2023-01-01T10:16:31.916Z,101429.84
2023-01-01T10:19:23.889Z,101415.22
2023-01-01T10:21:55.553Z,101410.56
2023-01-01T10:24:40.294Z,101413.38
2023-01-01T10:27:14.990Z,101404.41
2023-01-01T10:29:49.658Z,101415.53
2023-01-01T10:32:28.201Z,101400.94
2023-01-01T10:34:58.503Z,101395.88
2023-01-01T10:37:29.871Z,101392.78
2023-01-01T10:39:58.684Z,101380.25
2023-01-01T10:42:27.993Z,101385.78
2023-01-01T10:44:59.397Z,101390.97
2023-01-01T10:47:31.376Z,101402.03
2023-01-01T10:50:06.951Z,101424.91
2023-01-01T10:52:39.901Z,101421.56
2023-01-01T10:55:20.887Z,101425.78
2023-01-01T10:57:49.513Z,101439.91
2023-01-01T11:00:26.018Z,101445.28
2023-01-01T11:03:21.007Z,101449.97
2023-01-01T11:06:08.568Z,101462.00
2023-01-01T11:08:40.606Z,101458.59
2023-01-01T11:11:20.353Z,101459.56
2023-01-01T11:13:53.179Z,101454.16
2023-01-01T11:16:22.443Z,101464.53
2023-01-01T11:18:53.728Z,101474.03
2023-01-01T11:21:25.574Z,101475.31
2023-01-01T11:24:10.871Z,101468.16
2023-01-01T11:26:39.518Z,101465.56
2023-01-01T11:29:29.714Z,101477.56
2023-01-01T11:32:02.072Z,101463.16
2023-01-01T11:34:36.833Z,101455.09
2023-01-01T11:37:27.469Z,101461.41
2023-01-01T11:39:59.209Z,101455.31
2023-01-01T11:42:31.806Z,101459.56
2023-01-01T11:45:04.215Z,101456.47
2023-01-01T11:47:36.958Z,101460.41
2023-01-01T11:50:24.636Z,101457.03
2023-01-01T11:52:55.154Z,101459.91
2023-01-01T11:55:39.287Z,101469.88
2023-01-01T11:58:20.033Z,101470.38
2023-01-01T12:00:54.116Z,101467.03
2023-01-01T12:03:33.069Z,101459.00
2023-01-01T12:06:10.440Z,101472.66
2023-01-01T12:08:43.530Z,101480.91
2023-01-01T12:11:21.211Z,101476.22
2023-01-01T12:13:57.362Z,101473.22
2023-01-01T12:16:41.030Z,101474.41
2023-01-01T12:19:18.386Z,101478.59
2023-01-01T12:21:52.895Z,101487.75
2023-01-01T12:24:22.512Z,101473.19
2023-01-01T12:27:18.562Z,101476.50
2023-01-01T12:30:07.148Z,101479.50
2023-01-01T12:33:07.825Z,101473.44
2023-01-01T12:35:57.802Z,101464.50
2023-01-01T12:38:47.975Z,101463.34
2023-01-01T12:41:29.752Z,101469.84
2023-01-01T12:44:09.721Z,101469.84
2023-01-01T12:46:52.268Z,101467.66
2023-01-01T12:49:45.952Z,101469.03
2023-01-01T12:52:30.365Z,101470.34
2023-01-01T12:55:44.028Z,101480.19
2023-01-01T12:58:18.274Z,101476.50
2023-01-01T13:00:58.720Z,101483.13
2023-01-01T13:03:34.476Z,101483.03
2023-01-01T13:06:05.030Z,101476.78
2023-01-01T13:08:36.835Z,101477.50
2023-01-01T13:11:08.714Z,101479.09
2023-01-01T13:13:37.199Z,101466.13
2023-01-01T13:16:07.262Z,101478.06
2023-01-01T13:18:37.327Z,101474.09
2023-01-01T13:21:21.650Z,101478.78
2023-01-01T13:23:55.560Z,101486.13
2023-01-01T13:26:40.938Z,101481.09
2023-01-01T13:29:36.979Z,101481.41
2023-01-01T13:32:10.651Z,101469.69
2023-01-01T13:35:18.921Z,101472.97
2023-01-01T13:37:49.045Z,101470.69
2023-01-01T13:40:52.674Z,101473.28
2023-01-01T13:43:32.879Z,101457.41
2023-01-01T13:46:14.285Z,101456.56
2023-01-01T13:49:31.755Z,101462.03
2023-01-01T13:52:35.348Z,101461.56
2023-01-01T13:55:47.681Z,101470.56
2023-01-01T13:59:18.913Z,101472.75
2023-01-01T14:01:57.964Z,101472.63
2023-01-01T14:04:38.310Z,101471.09
2023-01-01T14:07:49.782Z,101467.41
2023-01-01T14:10:29.292Z,101466.22
2023-01-01T14:13:17.670Z,101465.72
2023-01-01T14:15:55.754Z,101457.97
2023-01-01T14:18:33.399Z,101458.53
2023-01-01T14:21:02.704Z,101462.22
2023-01-01T14:23:35.258Z,101460.66
2023-01-01T14:26:08.366Z,101465.50
2023-01-01T14:28:37.997Z,101458.97
2023-01-01T14:31:13.968Z,101460.31
2023-01-01T14:33:42.976Z,101457.63
2023-01-01T14:36:22.334Z,101464.97
2023-01-01T14:38:53.758Z,101469.81
2023-01-01T14:41:29.107Z,101470.13
2023-01-01T14:44:04.183Z,101462.44
2023-01-01T14:46:35.014Z,101460.75
2023-01-01T14:49:10.685Z,101460.69
2023-01-01T14:51:44.845Z,101460.69
2023-01-01T14:54:20.652Z,101450.34
2023-01-01T14:56:51.353Z,101446.06
2023-01-01T14:59:26.582Z,101442.47
2023-01-01T15:02:14.406Z,101444.16
2023-01-01T15:04:43.499Z,101445.16
2023-01-01T15:07:23.518Z,101445.94
2023-01-01T15:09:53.396Z,101437.59
2023-01-01T15:12:22.864Z,101433.38
2023-01-01T15:14:55.797Z,101437.91
2023-01-01T15:17:28.796Z,101444.72
2023-01-01T15:20:07.010Z,101438.66
2023-01-01T15:22:39.302Z,101451.06
2023-01-01T15:25:14.931Z,101452.38
2023-01-01T15:27:44.072Z,101451.38
2023-01-01T15:30:27.117Z,101453.38
2023-01-01T15:33:06.486Z,101454.66
2023-01-01T15:35:37.282Z,101461.09
2023-01-01T15:38:13.761Z,101453.53
2023-01-01T15:40:52.969Z,101460.56
2023-01-01T15:43:25.063Z,101467.63
2023-01-01T15:45:57.115Z,101468.44
2023-01-01T15:48:47.519Z,101472.75
2023-01-01T15:51:18.342Z,101472.41
2023-01-01T15:53:58.062Z,101471.91
2023-01-01T15:56:29.951Z,101471.91
2023-01-01T15:59:08.447Z,101463.63
2023-01-01T16:01:40.990Z,101466.69
2023-01-01T16:04:22.044Z,101453.44
2023-01-01T16:06:55.669Z,101449.75
2023-01-01T16:09:24.479Z,101444.28
2023-01-01T16:11:55.264Z,101434.22
2023-01-01T16:14:24.567Z,101442.25
2023-01-01T16:16:59.967Z,101444.78
2023-01-01T16:19:33.085Z,101450.97
2023-01-01T16:22:01.743Z,101442.63
2023-01-01T16:24:30.530Z,101444.78
2023-01-01T16:26:59.136Z,101450.47
2023-01-01T16:29:27.792Z,101448.63
2023-01-01T16:31:56.467Z,101442.59
2023-01-01T16:34:25.176Z,101445.56
2023-01-01T16:36:55.746Z,101437.81
2023-01-01T16:39:24.361Z,101428.78
2023-01-01T16:41:53.013Z,101428.25
2023-01-01T16:44:21.652Z,101425.41
2023-01-01T16:46:50.349Z,101423.59
2023-01-01T16:49:19.003Z,101420.91
2023-01-01T16:51:47.615Z,101422.28
2023-01-01T16:54:18.215Z,101416.69
2023-01-01T16:56:46.834Z,101417.38
2023-01-01T16:59:15.985Z,101409.34
2023-01-01T17:01:44.821Z,101415.00
2023-01-01T17:04:14.337Z,101407.97
2023-01-01T17:06:43.376Z,101399.09
2023-01-01T17:09:12.949Z,101393.56
2023-01-01T17:11:45.346Z,101394.94
2023-01-01T17:14:14.167Z,101397.16
2023-01-01T17:16:42.895Z,101397.72
2023-01-01T17:19:16.069Z,101398.03
2023-01-01T17:21:46.797Z,101399.38
2023-01-01T17:24:16.433Z,101405.59
2023-01-01T17:26:48.062Z,101409.03
2023-01-01T17:29:16.685Z,101410.63
2023-01-01T17:31:45.286Z,101412.56
2023-01-01T17:34:14.850Z,101403.88
2023-01-01T17:36:45.351Z,101405.53
2023-01-01T17:39:15.400Z,101397.75
2023-01-01T17:41:46.361Z,101399.19
2023-01-01T17:44:14.946Z,101389.25
2023-01-01T17:46:43.745Z,101391.34
2023-01-01T17:49:12.400Z,101386.31
2023-01-01T17:51:41.039Z,101379.28
2023-01-01T17:54:13.066Z,101378.88
2023-01-01T17:56:41.869Z,101384.25
2023-01-01T17:59:12.712Z,101378.81
2023-01-01T18:01:41.811Z,101377.13
2023-01-01T18:04:11.631Z,101367.41
2023-01-01T18:06:44.253Z,101373.06
2023-01-01T18:09:16.367Z,101367.00
2023-01-01T18:11:45.790Z,101376.19
2023-01-01T18:14:20.947Z,101367.06
2023-01-01T18:16:51.419Z,101364.09
2023-01-01T18:19:20.133Z,101358.56
2023-01-01T18:21:48.736Z,101361.00
2023-01-01T18:24:17.934Z,101365.81
2023-01-01T18:26:46.520Z,101360.47
2023-01-01T18:29:17.110Z,101352.72
2023-01-01T18:31:45.750Z,101350.06
2023-01-01T18:34:14.459Z,101344.41
2023-01-01T18:36:43.118Z,101342.44
2023-01-01T18:39:17.461Z,101339.22
2023-01-01T18:42:15.571Z,101331.63
2023-01-01T18:44:46.422Z,101336.19
2023-01-01T18:47:18.246Z,101340.72
2023-01-01T18:49:49.990Z,101334.25
2023-01-01T18:52:24.256Z,101324.97
2023-01-01T18:55:13.728Z,101319.31
2023-01-01T18:57:42.692Z,101313.56
2023-01-01T19:00:25.256Z,101312.03
2023-01-01T19:02:58.361Z,101309.59
2023-01-01T19:05:29.418Z,101303.31
2023-01-01T19:08:04.402Z,101302.47
2023-01-01T19:10:40.615Z,101300.78
2023-01-01T19:13:30.761Z,101292.22
2023-01-01T19:16:08.611Z,101295.28
2023-01-01T19:18:37.795Z,101296.28
2023-01-01T19:21:24.450Z,101293.75
2023-01-01T19:23:56.122Z,101296.28
2023-01-01T19:26:26.081Z,101298.84
2023-01-01T19:28:56.349Z,101297.97
2023-01-01T19:31:27.096Z,101296.28
2023-01-01T19:33:55.868Z,101300.25
2023-01-01T19:36:24.499Z,101298.09
2023-01-01T19:38:53.106Z,101299.94
2023-01-01T19:41:21.761Z,101286.56
2023-01-01T19:43:50.570Z,101290.78
2023-01-01T19:46:19.221Z,101292.28
2023-01-01T19:48:52.425Z,101286.13
2023-01-01T19:51:21.919Z,101285.28
2023-01-01T19:53:50.990Z,101287.09
2023-01-01T19:56:20.150Z,101276.13
2023-01-01T19:58:49.680Z,101275.97
2023-01-01T20:01:18.660Z,101277.41
2023-01-01T20:03:54.802Z,101272.91
2023-01-01T20:06:25.377Z,101258.56
2023-01-01T20:08:54.882Z,101256.88
2023-01-01T20:11:27.387Z,101248.16
2023-01-01T20:13:55.985Z,101241.94
2023-01-01T20:16:24.645Z,101242.81
2023-01-01T20:18:55.213Z,101233.09
2023-01-01T20:21:37.008Z,101226.59
2023-01-01T20:24:07.069Z,101216.34
2023-01-01T20:26:35.801Z,101213.16
2023-01-01T20:29:17.651Z,101210.16
2023-01-01T20:31:46.629Z,101208.03
2023-01-01T20:34:17.292Z,101200.38
2023-01-01T20:36:59.074Z,101198.09
2023-01-01T20:39:28.423Z,101198.63
2023-01-01T20:41:57.045Z,101193.16
2023-01-01T20:44:25.948Z,101186.53
2023-01-01T20:46:54.859Z,101190.59
2023-01-01T20:49:25.751Z,101196.69
2023-01-01T20:51:54.993Z,101195.41
2023-01-01T20:54:24.531Z,101186.53
2023-01-01T20:56:53.628Z,101190.19
2023-01-01T20:59:35.443Z,101181.81
2023-01-01T21:02:05.894Z,101178.97
2023-01-01T21:04:38.732Z,101177.53
2023-01-01T21:07:09.589Z,101183.16
2023-01-01T21:09:38.849Z,101168.81
2023-01-01T21:12:08.670Z,101173.03
2023-01-01T21:14:37.444Z,101168.00
2023-01-01T21:17:21.530Z,101161.78
2023-01-01T21:19:55.401Z,101154.69
2023-01-01T21:22:24.076Z,101147.13
2023-01-01T21:24:56.794Z,101144.16
2023-01-01T21:27:35.270Z,101140.09
2023-01-01T21:30:04.508Z,101136.44
2023-01-01T21:32:40.685Z,101130.56
2023-01-01T21:35:22.699Z,101134.06
2023-01-01T21:37:52.972Z,101120.97
2023-01-01T21:40:41.669Z,101118.72
2023-01-01T21:43:40.227Z,101107.03
2023-01-01T21:46:38.912Z,101105.03
2023-01-01T21:49:20.294Z,101098.41
2023-01-01T21:51:55.445Z,101091.66
2023-01-01T21:54:28.333Z,101097.84
2023-01-01T21:56:59.950Z,101092.34
2023-01-01T21:59:36.208Z,101086.31
2023-01-01T22:02:33.985Z,101094.25
2023-01-01T22:05:24.278Z,101101.38
2023-01-01T22:07:58.790Z,101094.63
2023-01-01T22:10:36.914Z,101092.91
2023-01-01T22:13:18.486Z,101092.66
2023-01-01T22:15:47.768Z,101086.63
2023-01-01T22:18:24.824Z,101080.59
2023-01-01T22:20:54.276Z,101073.56
2023-01-01T22:23:36.505Z,101058.19
2023-01-01T22:26:22.940Z,101063.56
2023-01-01T22:28:57.998Z,101058.19
2023-01-01T22:31:32.639Z,101072.25
2023-01-01T22:34:05.984Z,101063.78
2023-01-01T22:36:37.146Z,101056.59
2023-01-01T22:39:21.219Z,101056.97
2023-01-01T22:41:51.692Z,101054.28
2023-01-01T22:44:20.363Z,101038.41
2023-01-01T22:46:49.043Z,101043.22
2023-01-01T22:49:23.850Z,101032.25
2023-01-01T22:51:56.443Z,101050.25
2023-01-01T22:54:26.989Z,101051.94
2023-01-01T22:56:55.603Z,101039.78
2023-01-01T22:59:24.286Z,101022.56
2023-01-01T23:01:52.972Z,101033.28
2023-01-01T23:04:21.628Z,101036.13
2023-01-01T23:06:50.361Z,101032.13
2023-01-01T23:09:19.059Z,101019.59
2023-01-01T23:11:49.704Z,101021.09
2023-01-01T23:14:34.342Z,101012.06
